Time;durP1;ratioP1;P1;durP2;ratioP2;P2;SDS_P1;SDS_P2;PMS_P1;PMS_P2;Temp;Humidity;BMP_temperature;BMP_pressure;BME280_temperature;BME280_humidity;BME280_pressure;Samples;Min_cycle;Max_cycle;Signal;HPM_P1;HPM_P2
2023/12/01 00:02:03;;;;;;;;;41.67;33.33;;;;;;;;5056839;28;45306;-68
2023/12/01 00:04:28;;;;;;;;;44.00;35.75;;;;;;;;5057468;28;45457;-69
2023/12/01 00:06:53;;;;;;;;;45.00;36.33;;;;;;;;5057534;28;45384;-69
2023/12/01 00:09:18;;;;;;;;;42.33;30.33;;;;;;;;5060664;28;45418;-71
2023/12/01 00:11:43;;;;;;;;;42.67;33.00;;;;;;;;5057067;28;45517;-68
2023/12/01 00:14:08;;;;;;;;;42.33;34.33;;;;;;;;5057535;28;45349;-72
2023/12/01 00:16:34;;;;;;;;;36.67;31.67;;;;;;;;5056088;28;45542;-69
2023/12/01 00:18:59;;;;;;;;;33.75;33.00;;;;;;;;5058184;28;45162;-72
2023/12/01 00:21:24;;;;;;;;;43.67;34.67;;;;;;;;5060774;28;45167;-71
2023/12/01 00:23:49;;;;;;;;;39.00;33.67;;;;;;;;5064101;28;46673;-68
2023/12/01 00:26:14;;;;;;;;;46.00;38.33;;;;;;;;5057043;28;45513;-69
2023/12/01 00:28:40;;;;;;;;;42.33;32.00;;;;;;;;5057306;28;45409;-68
2023/12/01 00:31:05;;;;;;;;;42.25;31.00;;;;;;;;5058287;28;45907;-68
2023/12/01 00:33:30;;;;;;;;;41.00;32.00;;;;;;;;5060161;28;47380;-70
2023/12/01 00:35:55;;;;;;;;;37.67;30.33;;;;;;;;5057076;28;45569;-71
2023/12/01 00:38:21;;;;;;;;;33.33;31.00;;;;;;;;5057089;28;45553;-67
2023/12/01 00:40:46;;;;;;;;;31.75;29.25;;;;;;;;5056635;28;45360;-71
2023/12/01 00:43:12;;;;;;;;;36.33;33.67;;;;;;;;5061345;28;45595;-70
2023/12/01 00:45:38;;;;;;;;;44.25;31.75;;;;;;;;5056569;28;45466;-68
2023/12/01 00:48:03;;;;;;;;;42.50;34.75;;;;;;;;5056554;28;45394;-68
2023/12/01 00:50:28;;;;;;;;;36.75;29.50;;;;;;;;5064459;28;47371;-69
2023/12/01 00:52:54;;;;;;;;;44.00;34.25;;;;;;;;5057192;28;45529;-69
2023/12/01 00:55:19;;;;;;;;;46.00;33.33;;;;;;;;5059271;28;45700;-68
2023/12/01 00:57:44;;;;;;;;;38.75;28.75;;;;;;;;5056023;28;45403;-69
2023/12/01 01:00:10;;;;;;;;;48.00;34.25;;;;;;;;5061358;28;45338;-68
2023/12/01 01:02:35;;;;;;;;;39.00;31.50;;;;;;;;5055834;28;47209;-69
2023/12/01 01:05:02;;;;;;;;;45.00;33.67;;;;;;;;5058024;28;45514;-68
2023/12/01 01:07:28;;;;;;;;;36.00;31.75;;;;;;;;5056786;28;45279;-69
2023/12/01 01:09:53;;;;;;;;;38.00;34.33;;;;;;;;5059183;28;45577;-68
2023/12/01 01:12:18;;;;;;;;;42.00;32.33;;;;;;;;5056059;28;45779;-70
2023/12/01 01:14:43;;;;;;;;;36.33;33.33;;;;;;;;5053825;28;45504;-69
2023/12/01 01:17:08;;;;;;;;;40.00;32.33;;;;;;;;5060496;28;45541;-72
2023/12/01 01:19:33;;;;;;;;;35.25;29.00;;;;;;;;5040510;28;45421;-71
2023/12/01 01:21:59;;;;;;;;;49.00;35.33;;;;;;;;5057034;28;46405;-69
2023/12/01 01:24:24;;;;;;;;;43.00;32.33;;;;;;;;5058891;28;45588;-67
2023/12/01 01:26:49;;;;;;;;;50.33;38.00;;;;;;;;5048284;28;45350;-68
2023/12/01 01:29:14;;;;;;;;;46.33;37.33;;;;;;;;5061659;28;45323;-70
2023/12/01 01:31:39;;;;;;;;;49.33;39.67;;;;;;;;5055645;28;46045;-69
2023/12/01 01:34:05;;;;;;;;;45.75;33.50;;;;;;;;5059416;28;45311;-69
2023/12/01 01:36:30;;;;;;;;;45.25;35.25;;;;;;;;5056482;28;45627;-69
2023/12/01 01:38:55;;;;;;;;;38.25;35.50;;;;;;;;5055882;28;45392;-72
2023/12/01 01:41:21;;;;;;;;;39.00;26.50;;;;;;;;5055524;28;45429;-68
2023/12/01 01:43:46;;;;;;;;;38.75;31.25;;;;;;;;5054171;28;45507;-70
2023/12/01 01:46:11;;;;;;;;;47.00;36.25;;;;;;;;5056295;28;45485;-68
2023/12/01 01:48:37;;;;;;;;;50.25;33.00;;;;;;;;5061973;28;45548;-72
2023/12/01 01:51:03;;;;;;;;;40.00;31.50;;;;;;;;5054313;28;45329;-69
2023/12/01 01:53:29;;;;;;;;;52.75;39.00;;;;;;;;5040508;28;45446;-68
2023/12/01 01:55:56;;;;;;;;;36.50;35.50;;;;;;;;5063120;28;45395;-71
2023/12/01 01:58:21;;;;;;;;;52.00;34.25;;;;;;;;5055412;28;45371;-69
2023/12/01 02:00:49;;;;;;;;;51.00;36.33;;;;;;;;5063026;28;45395;-71
2023/12/01 02:03:15;;;;;;;;;51.50;36.75;;;;;;;;5059336;28;45503;-70
2023/12/01 02:05:40;;;;;;;;;40.25;33.00;;;;;;;;5054350;28;45450;-69
2023/12/01 02:08:24;;;;;;;;;47.00;37.25;;;;;;;;5053235;28;45482;-70
2023/12/01 02:10:50;;;;;;;;;51.50;37.25;;;;;;;;5054819;28;46579;-69
2023/12/01 02:13:15;;;;;;;;;55.75;43.00;;;;;;;;5055326;28;45457;-68
2023/12/01 02:15:41;;;;;;;;;47.75;35.25;;;;;;;;5057958;28;45200;-70
2023/12/01 02:18:23;;;;;;;;;42.50;32.50;;;;;;;;5064018;28;45451;-68
2023/12/01 02:20:49;;;;;;;;;39.00;32.50;;;;;;;;5057198;28;47331;-71
2023/12/01 02:23:14;;;;;;;;;42.50;32.00;;;;;;;;5055246;28;45355;-68
2023/12/01 02:25:40;;;;;;;;;34.67;30.33;;;;;;;;5060539;28;45390;-69
2023/12/01 02:28:05;;;;;;;;;47.67;36.00;;;;;;;;5041213;28;45512;-68
2023/12/01 02:30:30;;;;;;;;;44.00;37.33;;;;;;;;5055685;28;45292;-68
2023/12/01 02:32:55;;;;;;;;;40.33;26.67;;;;;;;;5055832;28;45649;-68
2023/12/01 02:35:22;;;;;;;;;46.00;35.50;;;;;;;;5058779;28;45357;-69
2023/12/01 02:37:47;;;;;;;;;46.25;36.50;;;;;;;;5059155;28;45342;-70
2023/12/01 02:40:16;;;;;;;;;57.00;37.33;;;;;;;;5058685;28;47201;-72
2023/12/01 02:42:48;;;;;;;;;43.75;37.25;;;;;;;;5055807;28;45433;-70
2023/12/01 02:45:13;;;;;;;;;43.75;33.75;;;;;;;;5059033;28;45366;-70
2023/12/01 02:47:38;;;;;;;;;42.00;34.00;;;;;;;;5059022;28;45267;-71
2023/12/01 02:50:03;;;;;;;;;45.67;34.67;;;;;;;;5058428;28;46609;-69
2023/12/01 02:52:29;;;;;;;;;35.75;31.75;;;;;;;;5058655;28;45263;-71
2023/12/01 02:54:54;;;;;;;;;52.67;37.00;;;;;;;;5058114;28;45652;-68
2023/12/01 02:57:19;;;;;;;;;48.33;37.33;;;;;;;;5066853;28;45374;-68
2023/12/01 02:59:44;;;;;;;;;50.33;37.00;;;;;;;;5060074;28;46309;-68
2023/12/01 03:02:09;;;;;;;;;41.67;34.00;;;;;;;;5057630;28;45264;-68
2023/12/01 03:04:34;;;;;;;;;49.00;39.33;;;;;;;;5058111;28;45467;-68
2023/12/01 03:07:04;;;;;;;;;43.00;37.00;;;;;;;;5058817;28;45501;-69
2023/12/01 03:09:29;;;;;;;;;38.00;34.50;;;;;;;;5057920;28;46617;-69
2023/12/01 03:11:54;;;;;;;;;44.00;35.33;;;;;;;;5058416;28;45332;-69
2023/12/01 03:14:19;;;;;;;;;46.00;35.67;;;;;;;;5057987;28;45419;-69
2023/12/01 03:16:45;;;;;;;;;47.50;37.25;;;;;;;;5058238;28;45328;-69
2023/12/01 03:19:10;;;;;;;;;45.67;32.00;;;;;;;;5057640;28;46385;-70
2023/12/01 03:21:35;;;;;;;;;41.33;36.00;;;;;;;;5058031;28;45458;-71
2023/12/01 03:24:01;;;;;;;;;48.00;35.00;;;;;;;;5058152;28;45402;-69
2023/12/01 03:26:26;;;;;;;;;41.50;33.50;;;;;;;;5059386;28;45668;-69
2023/12/01 03:28:51;;;;;;;;;46.00;34.33;;;;;;;;5058147;28;46559;-68
2023/12/01 03:31:16;;;;;;;;;41.67;34.33;;;;;;;;5057454;28;45472;-68
2023/12/01 03:33:41;;;;;;;;;41.00;30.00;;;;;;;;5058239;28;45305;-72
2023/12/01 03:36:07;;;;;;;;;40.67;30.33;;;;;;;;5058255;28;45536;-69
2023/12/01 03:38:32;;;;;;;;;47.25;33.25;;;;;;;;5057899;28;45354;-71
2023/12/01 03:41:00;;;;;;;;;43.50;28.75;;;;;;;;5057295;28;45367;-68
2023/12/01 03:43:25;;;;;;;;;45.25;33.50;;;;;;;;5057307;28;45387;-70
2023/12/01 03:45:50;;;;;;;;;46.00;25.67;;;;;;;;5056954;28;45631;-70
2023/12/01 03:48:15;;;;;;;;;51.33;34.33;;;;;;;;5057111;28;46348;-69
2023/12/01 03:50:40;;;;;;;;;40.67;29.00;;;;;;;;5059253;28;45455;-68
2023/12/01 03:53:07;;;;;;;;;49.00;35.00;;;;;;;;5064345;28;45450;-70
2023/12/01 03:55:32;;;;;;;;;46.75;32.50;;;;;;;;5069299;28;45205;-70
2023/12/01 03:57:57;;;;;;;;;37.33;31.00;;;;;;;;5069200;28;46379;-69
2023/12/01 04:00:22;;;;;;;;;45.50;35.75;;;;;;;;5060939;28;45463;-68
2023/12/01 04:02:48;;;;;;;;;45.67;33.00;;;;;;;;5069143;28;45371;-68
2023/12/01 04:05:22;;;;;;;;;37.25;30.50;;;;;;;;5061650;28;45266;-68
2023/12/01 04:07:50;;;;;;;;;27.75;27.75;;;;;;;;5063032;28;47356;-70
2023/12/01 04:10:15;;;;;;;;;37.25;30.50;;;;;;;;5059134;28;45747;-70
2023/12/01 04:12:44;;;;;;;;;45.50;36.75;;;;;;;;5066327;28;45438;-68
2023/12/01 04:15:12;;;;;;;;;49.00;37.50;;;;;;;;5057860;28;46941;-69
2023/12/01 04:17:38;;;;;;;;;43.25;30.25;;;;;;;;5062312;28;46426;-71
2023/12/01 04:20:20;;;;;;;;;43.67;33.00;;;;;;;;5064446;28;45798;-68
2023/12/01 04:22:47;;;;;;;;;43.25;34.75;;;;;;;;5054729;28;45506;-68
2023/12/01 04:25:12;;;;;;;;;44.25;37.00;;;;;;;;5057194;28;45173;-71
2023/12/01 04:27:37;;;;;;;;;46.00;34.75;;;;;;;;5056446;28;47182;-68
2023/12/01 04:30:03;;;;;;;;;35.67;28.00;;;;;;;;5057206;28;45337;-69
2023/12/01 04:32:28;;;;;;;;;49.25;36.00;;;;;;;;5057045;28;45779;-69
2023/12/01 04:34:54;;;;;;;;;44.33;34.67;;;;;;;;5056831;28;45361;-68
2023/12/01 04:37:19;;;;;;;;;45.50;32.50;;;;;;;;5056483;28;46588;-68
2023/12/01 04:39:44;;;;;;;;;48.75;37.00;;;;;;;;5056831;28;45450;-68
2023/12/01 04:42:10;;;;;;;;;45.00;36.75;;;;;;;;5056263;28;46180;-68
2023/12/01 04:44:35;;;;;;;;;44.00;36.00;;;;;;;;5056966;28;45517;-72
2023/12/01 04:47:00;;;;;;;;;47.50;34.25;;;;;;;;5055602;28;46290;-71
2023/12/01 04:49:25;;;;;;;;;59.00;39.33;;;;;;;;5056731;28;45419;-71
2023/12/01 04:51:50;;;;;;;;;47.00;36.33;;;;;;;;5060289;28;45474;-69
2023/12/01 04:54:16;;;;;;;;;48.50;38.00;;;;;;;;5056666;28;45471;-72
2023/12/01 04:56:41;;;;;;;;;46.33;39.33;;;;;;;;5055507;28;45462;-68
2023/12/01 04:59:06;;;;;;;;;54.50;37.75;;;;;;;;5057066;28;45273;-67
2023/12/01 05:01:35;;;;;;;;;48.33;37.67;;;;;;;;5055879;28;45581;-69
2023/12/01 05:04:00;;;;;;;;;45.75;36.50;;;;;;;;5055674;28;45496;-69
2023/12/01 05:06:25;;;;;;;;;51.67;38.00;;;;;;;;5059271;28;45656;-71
2023/12/01 05:08:50;;;;;;;;;45.67;37.33;;;;;;;;5055602;28;45376;-69
2023/12/01 05:11:16;;;;;;;;;45.67;38.67;;;;;;;;5056155;28;45554;-69
2023/12/01 05:13:41;;;;;;;;;48.50;38.75;;;;;;;;5056923;28;45610;-70
2023/12/01 05:16:06;;;;;;;;;47.50;37.75;;;;;;;;5061385;28;46107;-68
2023/12/01 05:18:32;;;;;;;;;52.00;39.50;;;;;;;;5061777;28;46425;-68
2023/12/01 05:20:57;;;;;;;;;56.00;38.00;;;;;;;;5056743;28;45811;-68
2023/12/01 05:23:22;;;;;;;;;50.33;37.00;;;;;;;;5056443;28;45310;-68
2023/12/01 05:25:50;;;;;;;;;45.67;39.00;;;;;;;;5059738;28;46567;-72
2023/12/01 05:28:15;;;;;;;;;57.00;41.75;;;;;;;;5062423;28;45331;-69
2023/12/01 05:30:43;;;;;;;;;51.50;39.50;;;;;;;;5056105;28;45505;-72
2023/12/01 05:33:08;;;;;;;;;45.25;37.00;;;;;;;;5059929;28;45473;-70
2023/12/01 05:35:37;;;;;;;;;50.50;37.00;;;;;;;;5060036;28;47376;-68
2023/12/01 05:38:04;;;;;;;;;52.25;40.25;;;;;;;;5059173;28;45359;-68
2023/12/01 05:40:38;;;;;;;;;50.00;38.50;;;;;;;;5063684;28;45268;-69
2023/12/01 05:43:04;;;;;;;;;53.25;38.00;;;;;;;;5054933;28;45553;-70
2023/12/01 05:45:35;;;;;;;;;45.50;37.75;;;;;;;;5056242;28;45357;-71
2023/12/01 05:48:00;;;;;;;;;49.25;39.75;;;;;;;;5055637;28;45304;-69
2023/12/01 05:50:27;;;;;;;;;54.25;40.75;;;;;;;;5055115;28;45465;-68
2023/12/01 05:52:53;;;;;;;;;51.75;40.25;;;;;;;;5038162;28;45486;-68
2023/12/01 05:55:20;;;;;;;;;49.75;40.00;;;;;;;;5053876;28;46626;-70
2023/12/01 05:57:46;;;;;;;;;57.75;38.50;;;;;;;;5057991;28;45352;-69
2023/12/01 06:00:12;;;;;;;;;44.75;36.25;;;;;;;;5058567;28;45498;-68
2023/12/01 06:02:39;;;;;;;;;44.00;37.50;;;;;;;;5064609;28;45407;-68
2023/12/01 06:05:04;;;;;;;;;48.50;37.75;;;;;;;;5055214;28;45639;-70
2023/12/01 06:07:29;;;;;;;;;62.50;42.25;;;;;;;;5054967;28;45426;-69
2023/12/01 06:09:54;;;;;;;;;56.00;42.33;;;;;;;;5054633;28;45767;-69
2023/12/01 06:12:20;;;;;;;;;41.33;35.00;;;;;;;;5058387;28;45636;-68
2023/12/01 06:14:45;;;;;;;;;54.00;38.67;;;;;;;;5058636;28;45458;-67
2023/12/01 06:17:10;;;;;;;;;43.67;36.00;;;;;;;;5058885;28;45308;-71
2023/12/01 06:19:35;;;;;;;;;57.33;41.00;;;;;;;;5058244;28;46905;-68
2023/12/01 06:22:00;;;;;;;;;43.00;35.67;;;;;;;;5057616;28;45675;-68
2023/12/01 06:24:26;;;;;;;;;55.33;38.67;;;;;;;;5058294;28;45810;-68
2023/12/01 06:26:52;;;;;;;;;56.75;38.00;;;;;;;;5058618;28;45472;-68
2023/12/01 06:29:18;;;;;;;;;56.00;42.00;;;;;;;;5059010;28;45501;-69
2023/12/01 06:31:43;;;;;;;;;57.00;38.25;;;;;;;;5060593;28;45548;-71
2023/12/01 06:34:08;;;;;;;;;55.00;38.00;;;;;;;;5058132;28;45684;-68
2023/12/01 06:36:33;;;;;;;;;48.33;38.67;;;;;;;;5058862;28;45423;-69
2023/12/01 06:38:58;;;;;;;;;57.67;38.00;;;;;;;;5059221;28;45367;-71
2023/12/01 06:41:23;;;;;;;;;54.00;41.00;;;;;;;;5060715;28;45609;-68
2023/12/01 06:43:49;;;;;;;;;45.50;36.00;;;;;;;;5056443;28;45625;-69
2023/12/01 06:46:14;;;;;;;;;45.00;35.67;;;;;;;;5061567;28;45612;-67
2023/12/01 06:48:39;;;;;;;;;41.75;33.75;;;;;;;;5064443;28;45539;-72
2023/12/01 06:51:04;;;;;;;;;48.33;38.00;;;;;;;;5066157;28;45727;-71
2023/12/01 06:53:30;;;;;;;;;56.50;38.50;;;;;;;;5061471;28;46735;-68
2023/12/01 06:55:55;;;;;;;;;51.33;36.67;;;;;;;;5058132;28;45487;-70
2023/12/01 06:58:20;;;;;;;;;56.33;39.33;;;;;;;;5058561;28;45461;-71
2023/12/01 07:00:45;;;;;;;;;56.75;39.25;;;;;;;;5058195;28;45524;-68
2023/12/01 07:03:11;;;;;;;;;57.00;39.33;;;;;;;;5057729;28;45586;-69
2023/12/01 07:05:37;;;;;;;;;56.50;41.25;;;;;;;;5058677;28;45594;-70
2023/12/01 07:08:03;;;;;;;;;49.25;40.75;;;;;;;;5057998;28;45454;-67
2023/12/01 07:10:29;;;;;;;;;47.25;38.50;;;;;;;;5058805;28;45446;-70
2023/12/01 07:12:54;;;;;;;;;57.75;43.00;;;;;;;;5057579;28;46531;-72
2023/12/01 07:15:20;;;;;;;;;47.75;26.25;;;;;;;;5056470;28;45525;-68
2023/12/01 07:17:48;;;;;;;;;58.50;40.50;;;;;;;;5070420;28;45299;-69
2023/12/01 07:20:14;;;;;;;;;54.75;38.00;;;;;;;;5057557;28;45472;-68
2023/12/01 07:22:42;;;;;;;;;56.00;38.25;;;;;;;;5055304;28;46486;-68
2023/12/01 07:25:10;;;;;;;;;46.25;35.50;;;;;;;;5056990;28;45318;-68
2023/12/01 07:27:36;;;;;;;;;53.25;36.25;;;;;;;;5054565;28;45613;-68
2023/12/01 07:30:01;;;;;;;;;45.00;33.25;;;;;;;;5053800;28;45495;-69
2023/12/01 07:32:26;;;;;;;;;56.33;38.33;;;;;;;;5033689;28;47588;-68
2023/12/01 07:34:51;;;;;;;;;57.00;38.00;;;;;;;;5054151;28;45459;-69
2023/12/01 07:37:16;;;;;;;;;51.33;27.67;;;;;;;;5043357;28;45712;-70
2023/12/01 07:39:41;;;;;;;;;50.00;37.25;;;;;;;;5044086;28;45470;-67
2023/12/01 07:42:07;;;;;;;;;48.25;35.00;;;;;;;;5047826;28;46617;-70
2023/12/01 07:44:32;;;;;;;;;52.00;35.00;;;;;;;;5047139;28;45611;-68
2023/12/01 07:46:57;;;;;;;;;61.67;42.00;;;;;;;;5050145;28;45456;-69
2023/12/01 07:49:23;;;;;;;;;53.67;38.00;;;;;;;;5052236;28;45541;-70
2023/12/01 07:51:48;;;;;;;;;52.33;41.33;;;;;;;;5049777;28;46555;-67
2023/12/01 07:54:13;;;;;;;;;57.67;42.00;;;;;;;;5049188;28;45921;-68
2023/12/01 07:56:38;;;;;;;;;60.33;41.33;;;;;;;;5051589;28;45489;-68
2023/12/01 07:59:05;;;;;;;;;54.33;39.33;;;;;;;;5043047;28;45531;-69
2023/12/01 08:01:31;;;;;;;;;44.25;38.25;;;;;;;;5053238;28;48197;-69
2023/12/01 08:03:57;;;;;;;;;50.75;38.50;;;;;;;;5050959;28;45485;-69
2023/12/01 08:06:22;;;;;;;;;52.00;41.00;;;;;;;;5035185;28;45520;-71
2023/12/01 08:08:47;;;;;;;;;53.33;37.33;;;;;;;;5052526;28;45399;-69
2023/12/01 08:11:12;;;;;;;;;42.00;30.75;;;;;;;;5050299;28;45900;-69
2023/12/01 08:13:37;;;;;;;;;41.67;37.33;;;;;;;;5054879;28;45438;-69
2023/12/01 08:16:04;;;;;;;;;43.67;39.00;;;;;;;;5052313;28;45347;-69
2023/12/01 08:18:30;;;;;;;;;49.25;36.25;;;;;;;;5052257;28;45473;-69
2023/12/01 08:20:55;;;;;;;;;48.00;36.75;;;;;;;;5050396;28;47990;-69
2023/12/01 08:23:20;;;;;;;;;43.67;33.00;;;;;;;;5054714;28;45465;-69
2023/12/01 08:25:46;;;;;;;;;52.00;39.25;;;;;;;;5054338;28;45446;-69
2023/12/01 08:28:11;;;;;;;;;48.50;38.00;;;;;;;;5052567;28;45538;-69
2023/12/01 08:30:39;;;;;;;;;44.33;35.00;;;;;;;;5054516;28;46519;-70
2023/12/01 08:33:05;;;;;;;;;43.25;37.50;;;;;;;;5052480;28;45565;-70
2023/12/01 08:35:30;;;;;;;;;46.50;33.25;;;;;;;;5052680;28;45534;-69
2023/12/01 08:37:56;;;;;;;;;62.25;41.50;;;;;;;;5054978;28;46803;-69
2023/12/01 08:40:21;;;;;;;;;60.50;38.25;;;;;;;;5053458;28;45623;-69
2023/12/01 08:42:46;;;;;;;;;48.50;34.75;;;;;;;;5177644;22;45592;-69
2023/12/01 08:45:12;;;;;;;;;49.67;37.33;;;;;;;;5071652;28;45374;-68
2023/12/01 08:47:37;;;;;;;;;50.50;36.75;;;;;;;;5073751;28;45859;-68
2023/12/01 08:50:02;;;;;;;;;51.75;36.25;;;;;;;;5071627;28;45490;-68
2023/12/01 08:52:27;;;;;;;;;49.50;33.00;;;;;;;;5072128;28;45520;-69
2023/12/01 08:54:53;;;;;;;;;48.00;38.33;;;;;;;;5068151;28;45779;-69
2023/12/01 08:57:18;;;;;;;;;47.00;39.00;;;;;;;;5068312;28;45547;-68
2023/12/01 08:59:43;;;;;;;;;50.00;37.67;;;;;;;;5073312;28;45739;-69
2023/12/01 09:02:09;;;;;;;;;42.25;35.50;;;;;;;;5072159;28;45354;-69
2023/12/01 09:04:34;;;;;;;;;45.50;34.75;;;;;;;;5073293;28;45638;-68
2023/12/01 09:06:59;;;;;;;;;43.00;37.33;;;;;;;;5070344;28;45333;-68
2023/12/01 09:09:25;;;;;;;;;45.67;37.33;;;;;;;;5072896;27;46586;-68
2023/12/01 09:11:50;;;;;;;;;49.25;39.25;;;;;;;;5072520;28;45316;-69
2023/12/01 09:14:15;;;;;;;;;47.33;35.00;;;;;;;;5070362;28;45692;-68
2023/12/01 09:16:41;;;;;;;;;47.67;37.00;;;;;;;;5069087;28;45751;-69
2023/12/01 09:19:06;;;;;;;;;46.33;38.00;;;;;;;;5069028;28;46821;-68
2023/12/01 09:21:31;;;;;;;;;47.67;35.33;;;;;;;;5075097;27;45343;-70
2023/12/01 09:23:56;;;;;;;;;46.00;37.00;;;;;;;;5073603;28;45360;-68
2023/12/01 09:26:21;;;;;;;;;48.33;40.33;;;;;;;;5072565;28;45968;-68
2023/12/01 09:28:48;;;;;;;;;52.50;39.50;;;;;;;;5073360;28;47525;-68
2023/12/01 09:31:13;;;;;;;;;56.25;38.50;;;;;;;;5066745;28;45533;-68
2023/12/01 09:33:39;;;;;;;;;54.33;39.33;;;;;;;;5071749;28;45711;-69
2023/12/01 09:36:04;;;;;;;;;55.00;39.33;;;;;;;;5072083;28;45643;-68
2023/12/01 09:38:30;;;;;;;;;47.75;38.00;;;;;;;;5072373;28;47357;-67
2023/12/01 09:40:55;;;;;;;;;36.25;32.00;;;;;;;;5070391;28;45877;-69
2023/12/01 09:43:20;;;;;;;;;49.67;36.67;;;;;;;;5073064;27;45445;-68
2023/12/01 09:45:45;;;;;;;;;50.50;36.75;;;;;;;;5078587;27;45536;-69
2023/12/01 09:48:11;;;;;;;;;49.50;40.00;;;;;;;;5071122;27;46030;-68
2023/12/01 09:50:37;;;;;;;;;42.25;35.25;;;;;;;;5075385;28;45469;-68
2023/12/01 09:53:02;;;;;;;;;49.50;36.00;;;;;;;;5077318;27;45400;-68
2023/12/01 09:55:28;;;;;;;;;48.75;35.50;;;;;;;;5074420;27;45610;-68
2023/12/01 09:57:53;;;;;;;;;56.50;38.00;;;;;;;;5076754;27;46189;-69
2023/12/01 10:00:19;;;;;;;;;54.75;41.50;;;;;;;;5075637;28;45457;-69
2023/12/01 10:02:44;;;;;;;;;55.50;40.25;;;;;;;;5073918;28;45421;-68
2023/12/01 10:05:13;;;;;;;;;54.50;39.25;;;;;;;;5077537;28;45497;-68
2023/12/01 10:07:39;;;;;;;;;53.00;39.75;;;;;;;;5077186;27;46502;-68
2023/12/01 10:10:20;;;;;;;;;40.00;32.25;;;;;;;;5076137;28;45483;-69
2023/12/01 10:13:11;;;;;;;;;49.50;38.00;;;;;;;;5073861;27;45475;-68
2023/12/01 10:15:40;;;;;;;;;43.50;36.75;;;;;;;;5069585;28;45473;-69
2023/12/01 10:18:09;;;;;;;;;44.50;33.25;;;;;;;;5077719;27;45605;-68
2023/12/01 10:20:35;;;;;;;;;48.75;38.25;;;;;;;;5076898;27;45525;-69
2023/12/01 10:23:02;;;;;;;;;51.50;35.25;;;;;;;;5074362;27;45513;-68
2023/12/01 10:25:27;;;;;;;;;53.00;38.25;;;;;;;;5076153;27;45453;-68
2023/12/01 10:27:56;;;;;;;;;54.25;37.75;;;;;;;;5076541;27;46431;-69
2023/12/01 10:30:22;;;;;;;;;46.25;33.25;;;;;;;;5077367;27;45477;-68
2023/12/01 10:32:47;;;;;;;;;50.25;36.75;;;;;;;;5076100;27;46539;-69
2023/12/01 10:35:13;;;;;;;;;51.67;39.33;;;;;;;;5077422;28;45454;-68
2023/12/01 10:37:38;;;;;;;;;54.00;36.00;;;;;;;;5076873;27;45739;-68
2023/12/01 10:40:06;;;;;;;;;49.33;40.33;;;;;;;;5076202;27;45482;-68
2023/12/01 10:42:32;;;;;;;;;49.50;40.75;;;;;;;;5081425;27;45415;-68
2023/12/01 10:44:59;;;;;;;;;49.25;38.50;;;;;;;;5094931;27;45331;-69
2023/12/01 10:47:25;;;;;;;;;47.50;35.75;;;;;;;;5091390;27;46631;-68
2023/12/01 10:49:51;;;;;;;;;56.25;32.50;;;;;;;;5090398;27;45457;-68
2023/12/01 10:52:16;;;;;;;;;46.75;35.00;;;;;;;;5093429;27;45235;-69
2023/12/01 10:54:42;;;;;;;;;41.75;32.25;;;;;;;;5092960;27;45512;-67
2023/12/01 10:57:07;;;;;;;;;43.25;35.50;;;;;;;;5096712;27;46631;-69
2023/12/01 10:59:33;;;;;;;;;49.00;37.00;;;;;;;;5095545;27;45580;-68
2023/12/01 11:02:00;;;;;;;;;53.00;39.00;;;;;;;;5095652;27;45450;-68
2023/12/01 11:04:32;;;;;;;;;45.25;37.25;;;;;;;;5102273;27;45563;-68
2023/12/01 11:07:15;;;;;;;;;48.50;32.00;;;;;;;;5099642;27;46560;-68
2023/12/01 11:09:40;;;;;;;;;42.25;31.50;;;;;;;;5104021;27;45469;-68
2023/12/01 11:12:21;;;;;;;;;46.75;33.00;;;;;;;;5097952;27;45235;-68
2023/12/01 11:14:51;;;;;;;;;45.00;32.75;;;;;;;;5092928;27;45470;-69
2023/12/01 11:17:16;;;;;;;;;42.00;34.00;;;;;;;;5097530;27;46361;-67
2023/12/01 11:19:42;;;;;;;;;32.25;27.75;;;;;;;;5098736;27;45230;-69
2023/12/01 11:22:27;;;;;;;;;46.25;32.00;;;;;;;;5097552;27;45481;-68
2023/12/01 11:24:52;;;;;;;;;49.75;38.00;;;;;;;;5092823;27;45462;-68
2023/12/01 11:27:19;;;;;;;;;37.25;30.50;;;;;;;;5097215;27;46599;-67
2023/12/01 11:30:07;;;;;;;;;38.75;32.50;;;;;;;;5098246;27;45270;-67
2023/12/01 11:32:33;;;;;;;;;44.00;32.75;;;;;;;;5096542;27;45184;-67
2023/12/01 11:35:06;;;;;;;;;53.25;37.00;;;;;;;;5098385;27;45517;-67
2023/12/01 11:37:50;;;;;;;;;47.50;41.25;;;;;;;;5094613;27;47376;-68
2023/12/01 11:40:19;;;;;;;;;47.50;37.25;;;;;;;;5085004;27;45492;-68
2023/12/01 11:42:47;;;;;;;;;48.50;36.75;;;;;;;;5086975;27;45418;-66
2023/12/01 11:45:12;;;;;;;;;41.75;35.00;;;;;;;;5075568;27;45550;-70
2023/12/01 11:47:38;;;;;;;;;55.25;37.25;;;;;;;;5066833;27;45948;-67
2023/12/01 11:50:04;;;;;;;;;49.75;36.00;;;;;;;;5078147;27;45768;-68
2023/12/01 11:52:29;;;;;;;;;55.00;30.50;;;;;;;;5070745;28;45675;-69
2023/12/01 11:54:55;;;;;;;;;45.25;36.75;;;;;;;;5073715;27;45602;-67
2023/12/01 11:57:20;;;;;;;;;45.75;35.00;;;;;;;;5073150;28;47330;-68
2023/12/01 11:59:45;;;;;;;;;52.25;38.25;;;;;;;;5072709;28;45480;-68
2023/12/01 12:02:11;;;;;;;;;47.25;35.75;;;;;;;;5072342;28;45508;-71
2023/12/01 12:04:39;;;;;;;;;43.00;33.25;;;;;;;;5049630;28;45463;-67
2023/12/01 12:07:05;;;;;;;;;46.00;37.50;;;;;;;;5071165;28;46502;-68
2023/12/01 12:09:31;;;;;;;;;51.25;38.50;;;;;;;;5076187;27;45741;-68
2023/12/01 12:11:57;;;;;;;;;46.50;34.00;;;;;;;;5072568;28;45307;-71
2023/12/01 12:14:23;;;;;;;;;40.00;31.00;;;;;;;;5074881;28;45534;-67
2023/12/01 12:16:48;;;;;;;;;44.00;36.00;;;;;;;;5071223;28;46257;-67
2023/12/01 12:19:14;;;;;;;;;42.00;32.50;;;;;;;;5071343;27;45465;-66
2023/12/01 12:21:39;;;;;;;;;39.50;30.50;;;;;;;;5072302;27;45607;-67
2023/12/01 12:24:05;;;;;;;;;38.50;33.50;;;;;;;;5075493;27;45672;-67
2023/12/01 12:26:31;;;;;;;;;45.50;29.00;;;;;;;;5073241;27;46729;-67
2023/12/01 12:28:57;;;;;;;;;37.25;29.25;;;;;;;;5075288;27;45472;-68
2023/12/01 12:31:25;;;;;;;;;39.25;31.25;;;;;;;;5073154;28;45456;-69
2023/12/01 12:33:50;;;;;;;;;43.00;36.75;;;;;;;;5072351;27;45418;-68
2023/12/01 12:36:16;;;;;;;;;46.75;36.75;;;;;;;;5074194;27;47562;-66
2023/12/01 12:38:41;;;;;;;;;39.25;33.50;;;;;;;;5073520;28;45327;-69
2023/12/01 12:41:23;;;;;;;;;33.75;30.25;;;;;;;;5067413;28;45362;-67
2023/12/01 12:43:51;;;;;;;;;32.75;25.25;;;;;;;;5068093;27;45573;-68
2023/12/01 12:46:17;;;;;;;;;43.50;34.75;;;;;;;;5076339;27;47242;-70
2023/12/01 12:48:43;;;;;;;;;31.00;24.00;;;;;;;;5078396;27;45486;-69
2023/12/01 12:51:10;;;;;;;;;38.75;28.75;;;;;;;;5078244;27;45461;-67
2023/12/01 12:53:36;;;;;;;;;40.50;34.75;;;;;;;;5075790;27;45623;-67
2023/12/01 12:56:09;;;;;;;;;38.50;33.25;;;;;;;;5073861;27;46602;-67
2023/12/01 12:58:34;;;;;;;;;43.00;36.75;;;;;;;;5079216;27;45404;-67
2023/12/01 13:00:59;;;;;;;;;35.67;31.67;;;;;;;;5075451;27;45422;-68
2023/12/01 13:03:24;;;;;;;;;35.67;28.67;;;;;;;;5076661;27;47122;-68
2023/12/01 13:05:50;;;;;;;;;43.00;32.00;;;;;;;;5079150;27;45495;-69
2023/12/01 13:08:15;;;;;;;;;33.33;28.33;;;;;;;;5070097;27;45433;-67
2023/12/01 13:10:40;;;;;;;;;41.33;29.67;;;;;;;;5079374;27;45417;-67
2023/12/01 13:13:06;;;;;;;;;54.75;36.75;;;;;;;;5076418;27;45529;-67
2023/12/01 13:15:31;;;;;;;;;40.67;30.33;;;;;;;;5074350;27;46294;-67
2023/12/01 13:17:56;;;;;;;;;39.33;27.00;;;;;;;;5071640;27;46887;-68
2023/12/01 13:20:21;;;;;;;;;35.75;26.50;;;;;;;;5073080;27;45640;-67
2023/12/01 13:22:46;;;;;;;;;42.67;28.67;;;;;;;;5077842;27;45608;-67
2023/12/01 13:25:11;;;;;;;;;31.33;28.33;;;;;;;;5073901;27;45738;-67
2023/12/01 13:27:37;;;;;;;;;40.67;28.00;;;;;;;;5070835;27;45251;-67
2023/12/01 13:30:03;;;;;;;;;33.33;24.67;;;;;;;;5080947;27;45690;-69
2023/12/01 13:32:29;;;;;;;;;36.50;26.75;;;;;;;;5074488;27;45496;-68
2023/12/01 13:34:54;;;;;;;;;38.00;28.25;;;;;;;;5077037;27;46449;-67
2023/12/01 13:37:19;;;;;;;;;35.67;31.33;;;;;;;;5073534;27;45469;-68
2023/12/01 13:39:44;;;;;;;;;38.33;29.33;;;;;;;;5082565;27;45271;-68
2023/12/01 13:42:09;;;;;;;;;42.50;30.75;;;;;;;;5075318;27;47169;-67
2023/12/01 13:44:34;;;;;;;;;35.00;31.00;;;;;;;;5091077;27;46469;-67
2023/12/01 13:47:00;;;;;;;;;38.33;33.00;;;;;;;;5091516;27;45508;-67
2023/12/01 13:49:25;;;;;;;;;42.25;29.50;;;;;;;;5095231;27;45341;-67
2023/12/01 13:51:50;;;;;;;;;38.33;31.33;;;;;;;;5088248;27;45454;-67
2023/12/01 13:54:15;;;;;;;;;31.33;25.33;;;;;;;;5087359;27;46758;-67
2023/12/01 13:56:40;;;;;;;;;38.67;32.33;;;;;;;;5089382;27;45573;-67
2023/12/01 13:59:05;;;;;;;;;45.67;34.33;;;;;;;;5092403;27;45351;-68
2023/12/01 14:01:31;;;;;;;;;42.33;29.67;;;;;;;;5089598;27;45417;-69
2023/12/01 14:03:56;;;;;;;;;33.67;32.33;;;;;;;;5090271;27;45569;-68
2023/12/01 14:06:21;;;;;;;;;36.75;29.75;;;;;;;;5087463;27;45493;-69
2023/12/01 14:08:46;;;;;;;;;34.67;28.00;;;;;;;;5091222;27;45473;-67
2023/12/01 14:11:12;;;;;;;;;35.33;28.33;;;;;;;;5092958;27;45453;-67